createdAt,value
2023-01-03T00:02:02.480Z,0.50
2023-01-03T00:04:29.442Z,0.45
2023-01-03T00:06:56.283Z,0.60
2023-01-03T00:09:25.098Z,1.08
2023-01-03T00:12:12.611Z,0.60
2023-01-03T00:14:42.795Z,0.50
2023-01-03T00:17:11.126Z,0.60
2023-01-03T00:19:41.225Z,0.40
2023-01-03T00:22:08.885Z,0.40
2023-01-03T00:24:35.839Z,0.20
2023-01-03T00:27:02.894Z,0.20
2023-01-03T00:29:29.955Z,0.30
2023-01-03T00:31:56.986Z,0.20
2023-01-03T00:34:24.035Z,0.20
2023-01-03T00:36:50.871Z,0.13
2023-01-03T00:39:17.788Z,0.10
2023-01-03T00:41:45.081Z,0.20
2023-01-03T00:44:12.269Z,0.30
2023-01-03T00:46:39.366Z,0.10
2023-01-03T00:49:06.491Z,0.20
2023-01-03T00:51:36.165Z,0.20
2023-01-03T00:54:05.178Z,0.10
2023-01-03T00:56:35.208Z,0.20
2023-01-03T00:59:02.873Z,0.10
2023-01-03T01:01:39.141Z,0.20
2023-01-03T01:04:17.318Z,0.10
2023-01-03T01:06:54.395Z,0.10
2023-01-03T01:09:27.258Z,0.10
2023-01-03T01:11:54.853Z,0.10
2023-01-03T01:14:24.547Z,0.10
2023-01-03T01:16:54.927Z,0.17
2023-01-03T01:19:26.268Z,0.10
2023-01-03T01:21:53.333Z,0.20
2023-01-03T01:24:20.185Z,0.10
2023-01-03T01:26:47.525Z,0.20
2023-01-03T01:29:15.449Z,0.10
2023-01-03T01:31:43.393Z,0.10
2023-01-03T01:34:10.553Z,0.10
2023-01-03T01:36:39.601Z,0.20
2023-01-03T01:39:10.031Z,0.00
2023-01-03T01:41:56.517Z,0.10
2023-01-03T01:44:53.730Z,0.10
2023-01-03T01:47:51.855Z,0.30
2023-01-03T01:50:30.987Z,0.30
2023-01-03T01:53:03.558Z,0.20
2023-01-03T01:55:35.596Z,0.20
2023-01-03T01:58:02.930Z,0.30
2023-01-03T02:00:30.335Z,0.20
2023-01-03T02:02:57.331Z,0.32
2023-01-03T02:05:25.426Z,0.30
2023-01-03T02:07:53.623Z,0.20
2023-01-03T02:10:45.925Z,0.20
2023-01-03T02:13:45.653Z,0.22
2023-01-03T02:16:40.040Z,0.20
2023-01-03T02:19:15.927Z,0.25
2023-01-03T02:21:55.314Z,0.30
2023-01-03T02:25:06.210Z,0.20
2023-01-03T02:28:07.185Z,0.20
2023-01-03T02:30:46.312Z,0.43
2023-01-03T02:33:47.157Z,0.20
2023-01-03T02:36:28.829Z,0.20
2023-01-03T02:39:11.061Z,0.20
2023-01-03T02:45:19.799Z,0.30
2023-01-03T02:48:01.370Z,0.13
2023-01-03T02:50:34.907Z,0.22
2023-01-03T02:53:05.809Z,0.40
2023-01-03T02:55:34.141Z,0.30
2023-01-03T02:58:09.663Z,0.38
2023-01-03T03:00:41.735Z,0.50
2023-01-03T03:05:54.319Z,0.63
2023-01-03T03:11:06.952Z,0.80
2023-01-03T03:13:51.660Z,1.33
2023-01-03T03:16:43.118Z,1.27
2023-01-03T03:19:49.498Z,0.70
2023-01-03T03:22:48.036Z,0.70
2023-01-03T03:25:22.842Z,1.20
2023-01-03T03:28:13.011Z,1.38
2023-01-03T03:30:42.454Z,1.65
2023-01-03T03:33:11.663Z,2.10
2023-01-03T03:36:05.949Z,2.30
2023-01-03T03:38:37.724Z,1.15
2023-01-03T03:41:48.245Z,0.70
2023-01-03T03:44:53.329Z,0.50
2023-01-03T03:47:37.415Z,0.40
2023-01-03T03:50:29.466Z,0.40
2023-01-03T03:53:00.187Z,0.90
2023-01-03T03:55:53.072Z,1.52
2023-01-03T03:58:41.264Z,1.45
2023-01-03T04:01:11.815Z,1.60
2023-01-03T04:03:41.105Z,2.00
2023-01-03T04:06:25.955Z,1.38
2023-01-03T04:08:52.866Z,1.17
2023-01-03T04:11:19.899Z,0.77
2023-01-03T04:13:46.715Z,0.60
2023-01-03T04:16:13.650Z,1.40
2023-01-03T04:18:40.457Z,2.00
2023-01-03T04:21:07.309Z,2.05
2023-01-03T04:23:34.235Z,1.35
2023-01-03T04:26:01.181Z,1.17
2023-01-03T04:28:27.960Z,0.70
2023-01-03T04:30:54.939Z,0.80
2023-01-03T04:33:21.714Z,0.77
2023-01-03T04:35:48.585Z,0.70
2023-01-03T04:38:15.366Z,0.75
2023-01-03T04:40:42.200Z,0.63
2023-01-03T04:43:29.330Z,0.75
2023-01-03T04:45:56.220Z,2.60
2023-01-03T04:48:23.422Z,3.47
2023-01-03T04:50:54.392Z,5.25
2023-01-03T04:53:22.382Z,5.25
2023-01-03T04:55:50.484Z,4.30
2023-01-03T04:58:17.993Z,3.90
2023-01-03T05:00:44.880Z,4.50
2023-01-03T05:03:11.783Z,4.43
2023-01-03T05:05:39.662Z,1.02
2023-01-03T05:08:12.329Z,1.25
2023-01-03T05:10:40.707Z,0.77
2023-01-03T05:13:08.272Z,0.60
2023-01-03T05:15:37.747Z,0.90
2023-01-03T05:18:05.250Z,0.70
2023-01-03T05:20:50.515Z,0.80
2023-01-03T05:23:37.017Z,0.82
2023-01-03T05:26:20.031Z,1.00
2023-01-03T05:28:50.810Z,2.28
2023-01-03T05:31:17.762Z,4.05
2023-01-03T05:33:44.752Z,1.20
2023-01-03T05:36:12.006Z,1.17
2023-01-03T05:38:39.284Z,0.68
2023-01-03T05:41:07.969Z,0.75
2023-01-03T05:43:34.806Z,0.95
2023-01-03T05:46:01.843Z,1.10
2023-01-03T05:48:28.677Z,0.80
2023-01-03T05:50:58.252Z,1.02
2023-01-03T05:53:25.731Z,1.02
2023-01-03T05:55:52.596Z,1.27
2023-01-03T05:58:19.611Z,0.95
2023-01-03T06:00:46.466Z,1.27
2023-01-03T06:03:13.261Z,1.45
2023-01-03T06:05:44.600Z,2.55
2023-01-03T06:08:14.798Z,1.65
2023-01-03T06:10:41.692Z,2.33
2023-01-03T06:13:08.637Z,2.28
2023-01-03T06:15:35.461Z,2.22
2023-01-03T06:18:02.778Z,2.10
2023-01-03T06:20:30.243Z,1.33
2023-01-03T06:22:57.486Z,1.60
2023-01-03T06:25:24.808Z,1.25
2023-01-03T06:27:51.668Z,1.00
2023-01-03T06:30:18.651Z,0.95
2023-01-03T06:32:45.582Z,1.00
2023-01-03T06:35:13.034Z,1.42
2023-01-03T06:37:40.092Z,1.15
2023-01-03T06:40:07.851Z,1.27
2023-01-03T06:42:44.606Z,0.82
2023-01-03T06:45:31.229Z,1.00
2023-01-03T06:48:17.472Z,1.33
2023-01-03T06:51:03.317Z,1.13
2023-01-03T06:53:34.852Z,0.98
2023-01-03T06:56:02.260Z,1.23
2023-01-03T06:58:29.702Z,1.67
2023-01-03T07:00:58.392Z,2.05
2023-01-03T07:03:25.356Z,3.05
2023-01-03T07:05:52.213Z,2.70
2023-01-03T07:08:19.389Z,2.67
2023-01-03T07:15:54.332Z,3.08
2023-01-03T07:18:21.453Z,3.78
2023-01-03T07:20:48.473Z,2.75
2023-01-03T07:23:15.307Z,2.20
2023-01-03T07:25:42.584Z,1.90
2023-01-03T07:28:11.434Z,3.97
2023-01-03T07:30:44.993Z,3.00
2023-01-03T07:33:14.754Z,3.03
2023-01-03T07:35:42.045Z,3.38
2023-01-03T07:38:10.818Z,3.50
2023-01-03T07:40:37.970Z,4.05
2023-01-03T07:43:23.882Z,4.57
2023-01-03T07:45:50.752Z,4.30
2023-01-03T07:48:17.584Z,3.58
2023-01-03T07:50:44.470Z,4.55
2023-01-03T07:53:16.656Z,3.92
2023-01-03T07:55:45.051Z,3.38
2023-01-03T07:58:11.907Z,3.63
2023-01-03T08:00:39.555Z,3.55
2023-01-03T08:03:10.809Z,3.10
2023-01-03T08:05:38.339Z,3.35
2023-01-03T08:08:05.695Z,2.92
2023-01-03T08:10:50.914Z,2.95
2023-01-03T08:13:17.888Z,2.50
2023-01-03T08:15:52.764Z,2.40
2023-01-03T08:18:22.507Z,1.70
2023-01-03T08:20:49.842Z,1.58
2023-01-03T08:23:17.266Z,1.73
2023-01-03T08:25:44.057Z,1.90
2023-01-03T08:28:11.614Z,1.85
2023-01-03T08:30:44.187Z,2.08
2023-01-03T08:33:14.884Z,1.90
2023-01-03T08:35:45.815Z,2.17
2023-01-03T08:38:18.870Z,1.77
2023-01-03T08:40:46.975Z,1.80
2023-01-03T08:43:14.950Z,1.95
2023-01-03T08:45:41.790Z,1.80
2023-01-03T08:48:10.576Z,2.30
2023-01-03T08:50:37.826Z,1.98
2023-01-03T08:53:05.906Z,1.90
2023-01-03T08:55:34.052Z,2.88
2023-01-03T08:58:01.071Z,4.93
2023-01-03T09:00:28.787Z,2.90
2023-01-03T09:03:00.322Z,2.78
2023-01-03T09:05:28.154Z,4.43
2023-01-03T09:07:55.929Z,5.50
2023-01-03T09:10:23.482Z,5.00
2023-01-03T09:12:50.587Z,4.72
2023-01-03T09:15:17.454Z,4.50
2023-01-03T09:17:45.397Z,4.78
2023-01-03T09:20:13.776Z,4.07
2023-01-03T09:22:41.093Z,4.35
2023-01-03T09:25:08.643Z,4.88
2023-01-03T09:27:35.892Z,4.60
2023-01-03T09:30:03.060Z,4.80
2023-01-03T09:32:29.932Z,5.45
2023-01-03T09:34:56.850Z,5.30
2023-01-03T09:37:23.645Z,4.18
2023-01-03T09:39:50.436Z,4.55
2023-01-03T09:42:42.972Z,4.38
2023-01-03T09:45:29.630Z,4.93
2023-01-03T09:47:57.006Z,4.60
2023-01-03T09:50:39.414Z,5.10
2023-01-03T09:53:57.647Z,4.88
2023-01-03T09:56:43.217Z,5.45
2023-01-03T09:59:35.703Z,5.00
2023-01-03T10:05:18.400Z,5.15
2023-01-03T10:08:03.374Z,4.78
2023-01-03T10:11:22.481Z,5.05
2023-01-03T10:14:19.659Z,5.22
2023-01-03T10:17:04.743Z,5.32
2023-01-03T10:20:09.341Z,4.70
2023-01-03T10:22:37.771Z,4.32
2023-01-03T10:25:04.562Z,4.15
2023-01-03T10:27:34.524Z,3.92
2023-01-03T10:30:05.031Z,3.58
2023-01-03T10:32:54.876Z,4.30
2023-01-03T10:35:27.656Z,4.22
2023-01-03T10:37:56.499Z,4.22
2023-01-03T10:40:46.086Z,4.38
2023-01-03T10:43:20.020Z,4.50
2023-01-03T10:45:55.240Z,3.80
2023-01-03T10:48:22.646Z,3.72
2023-01-03T10:50:50.871Z,4.28
2023-01-03T10:53:23.081Z,4.07
2023-01-03T10:55:54.678Z,4.60
2023-01-03T10:58:32.217Z,4.43
2023-01-03T11:01:30.675Z,4.13
2023-01-03T11:04:31.408Z,4.25
2023-01-03T11:07:13.193Z,4.30
2023-01-03T11:09:54.836Z,3.05
2023-01-03T11:12:30.607Z,3.88
2023-01-03T11:14:58.389Z,8.57
2023-01-03T11:17:26.613Z,6.32
2023-01-03T11:19:54.343Z,6.70
2023-01-03T11:22:38.127Z,5.18
2023-01-03T11:25:12.877Z,3.60
2023-01-03T11:27:51.548Z,3.00
2023-01-03T11:30:48.720Z,2.75
2023-01-03T11:33:29.748Z,2.65
2023-01-03T11:36:39.267Z,2.80
2023-01-03T11:39:50.797Z,3.10
2023-01-03T11:42:35.997Z,4.00
2023-01-03T11:45:09.643Z,4.88
2023-01-03T11:47:55.373Z,2.83
2023-01-03T11:50:53.459Z,2.13
2023-01-03T11:53:36.605Z,1.90
2023-01-03T11:56:43.208Z,2.28
2023-01-03T11:59:36.033Z,2.65
2023-01-03T12:02:26.794Z,2.22
2023-01-03T12:05:14.999Z,1.92
2023-01-03T12:08:14.061Z,3.25
2023-01-03T12:10:54.609Z,2.17
2023-01-03T12:13:42.491Z,1.77
2023-01-03T12:16:12.923Z,1.52
2023-01-03T12:19:11.683Z,1.55
2023-01-03T12:21:43.961Z,2.63
2023-01-03T12:24:43.658Z,2.55
2023-01-03T12:27:32.624Z,2.28
2023-01-03T12:30:12.162Z,1.92
2023-01-03T12:32:53.843Z,1.45
2023-01-03T12:35:26.482Z,2.00
2023-01-03T12:37:55.876Z,1.67
2023-01-03T12:41:14.777Z,2.13
2023-01-03T12:43:47.245Z,1.98
2023-01-03T12:46:18.621Z,1.90
2023-01-03T12:49:07.356Z,2.42
2023-01-03T12:51:36.052Z,2.05
2023-01-03T12:54:26.707Z,1.98
2023-01-03T12:57:18.627Z,1.55
2023-01-03T12:59:51.433Z,1.63
2023-01-03T13:02:33.563Z,1.70
2023-01-03T13:05:20.738Z,2.08
2023-01-03T13:08:13.583Z,1.73
2023-01-03T13:10:44.239Z,1.95
2023-01-03T13:13:16.824Z,2.50
2023-01-03T13:15:43.708Z,2.35
2023-01-03T13:18:22.812Z,2.75
2023-01-03T13:20:52.064Z,2.08
2023-01-03T13:23:30.912Z,2.17
2023-01-03T13:26:35.931Z,2.85
2023-01-03T13:29:33.839Z,2.90
2023-01-03T13:32:46.277Z,3.17
2023-01-03T13:35:16.115Z,2.60
2023-01-03T13:37:48.133Z,3.17
2023-01-03T13:43:26.773Z,3.03
2023-01-03T13:45:56.796Z,2.90
2023-01-03T13:48:31.271Z,3.17
2023-01-03T13:51:26.695Z,2.55
2023-01-03T13:54:00.328Z,3.20
2023-01-03T13:56:48.867Z,2.25
2023-01-03T13:59:17.750Z,2.50
2023-01-03T14:02:12.498Z,2.40
2023-01-03T14:04:45.307Z,2.95
2023-01-03T14:07:34.070Z,2.80
2023-01-03T14:10:28.355Z,2.45
2023-01-03T14:13:07.187Z,2.47
2023-01-03T14:15:35.253Z,2.70
2023-01-03T14:18:14.652Z,3.15
2023-01-03T14:20:48.048Z,2.60
2023-01-03T14:23:57.688Z,3.33
2023-01-03T14:26:16.096Z,3.03
2023-01-03T14:28:50.459Z,2.63
2023-01-03T14:31:21.405Z,2.75
2023-01-03T14:34:00.391Z,3.00
2023-01-03T14:36:27.683Z,3.30
2023-01-03T14:38:58.614Z,3.88
2023-01-03T14:41:34.816Z,5.13
2023-01-03T14:44:14.874Z,5.50
2023-01-03T14:46:50.124Z,5.60
2023-01-03T14:49:36.721Z,6.03
2023-01-03T14:52:28.815Z,5.45
2023-01-03T14:55:03.723Z,5.05
2023-01-03T14:57:32.128Z,5.32
2023-01-03T15:00:01.408Z,5.85
2023-01-03T15:02:34.223Z,5.35
2023-01-03T15:05:02.739Z,5.57
2023-01-03T15:07:34.661Z,6.10
2023-01-03T15:10:26.105Z,5.20
2023-01-03T15:13:00.752Z,5.57
2023-01-03T15:15:38.652Z,5.95
2023-01-03T15:18:09.680Z,6.22
2023-01-03T15:20:43.774Z,5.85
2023-01-03T15:23:46.096Z,6.32
2023-01-03T15:26:37.925Z,7.72
2023-01-03T15:29:18.667Z,6.90
2023-01-03T15:31:56.891Z,6.88
2023-01-03T15:34:29.973Z,8.30
2023-01-03T15:37:01.297Z,7.03
2023-01-03T15:39:45.098Z,6.80
2023-01-03T15:42:50.213Z,6.95
2023-01-03T15:45:27.125Z,7.38
2023-01-03T15:47:57.992Z,6.55
2023-01-03T15:50:33.187Z,6.55
2023-01-03T15:52:59.977Z,6.45
2023-01-03T15:55:26.823Z,6.25
2023-01-03T15:57:54.089Z,6.60
2023-01-03T16:00:24.100Z,6.95
2023-01-03T16:02:51.303Z,7.03
2023-01-03T16:05:22.646Z,7.82
2023-01-03T16:07:50.874Z,7.78
2023-01-03T16:10:17.716Z,7.32
2023-01-03T16:12:44.650Z,7.03
2023-01-03T16:15:20.873Z,7.88
2023-01-03T16:17:48.941Z,25.52
2023-01-03T16:20:17.951Z,17.02
2023-01-03T16:22:58.030Z,23.38
2023-01-03T16:25:28.791Z,26.52
2023-01-03T16:27:55.653Z,18.35
2023-01-03T16:30:24.435Z,18.30
2023-01-03T16:32:51.821Z,15.88
2023-01-03T16:35:20.855Z,13.95
2023-01-03T16:37:47.848Z,12.93
2023-01-03T16:40:20.733Z,10.77
2023-01-03T16:42:48.142Z,10.77
2023-01-03T16:45:16.389Z,9.43
2023-01-03T16:47:43.828Z,9.55
2023-01-03T16:50:13.932Z,9.90
2023-01-03T16:52:45.269Z,10.88
2023-01-03T16:55:25.003Z,8.88
2023-01-03T16:57:54.672Z,12.15
2023-01-03T17:00:24.594Z,13.00
2023-01-03T17:02:52.142Z,14.80
2023-01-03T17:05:19.161Z,14.68
2023-01-03T17:07:47.585Z,14.57
2023-01-03T17:10:37.145Z,14.23
2023-01-03T17:13:12.172Z,14.00
2023-01-03T17:15:39.811Z,11.68
2023-01-03T17:18:06.595Z,10.55
2023-01-03T17:20:33.567Z,11.30
2023-01-03T17:23:00.652Z,13.60
2023-01-03T17:25:27.610Z,17.70
2023-01-03T17:28:00.304Z,18.70
2023-01-03T17:30:28.777Z,18.70
2023-01-03T17:32:55.690Z,22.85
2023-01-03T17:35:22.818Z,24.48
2023-01-03T17:38:23.894Z,16.17
2023-01-03T17:40:37.948Z,11.13
2023-01-03T17:43:04.979Z,38.00
2023-01-03T17:45:50.329Z,45.20
2023-01-03T17:48:35.747Z,19.80
2023-01-03T17:51:03.178Z,8.27
2023-01-03T17:53:30.131Z,13.70
2023-01-03T17:55:57.068Z,19.95
2023-01-03T17:58:33.543Z,14.52
2023-01-03T18:01:00.569Z,15.82
2023-01-03T18:03:27.950Z,16.58
2023-01-03T18:05:56.178Z,13.43
2023-01-03T18:08:24.207Z,12.13
2023-01-03T18:10:54.505Z,14.02
2023-01-03T18:13:26.059Z,13.32
2023-01-03T18:15:54.266Z,10.82
2023-01-03T18:18:23.240Z,10.32
2023-01-03T18:20:50.790Z,9.95
2023-01-03T18:23:22.401Z,11.48
2023-01-03T18:25:49.450Z,11.98
2023-01-03T18:28:22.686Z,16.33
2023-01-03T18:30:49.613Z,20.88
2023-01-03T18:33:16.478Z,21.67
2023-01-03T18:35:43.843Z,18.70
2023-01-03T18:38:33.114Z,15.38
2023-01-03T18:41:04.951Z,14.50
2023-01-03T18:43:33.138Z,13.77
2023-01-03T18:46:00.190Z,16.75
2023-01-03T18:48:27.162Z,17.35
2023-01-03T18:50:58.948Z,19.15
2023-01-03T18:53:29.295Z,20.67
2023-01-03T18:55:56.499Z,16.92
2023-01-03T18:58:36.668Z,14.07
2023-01-03T19:01:05.641Z,13.13
2023-01-03T19:03:34.256Z,14.40
2023-01-03T19:06:02.609Z,22.52
2023-01-03T19:08:34.174Z,24.88
2023-01-03T19:11:12.353Z,11.77
2023-01-03T19:13:51.301Z,10.07
2023-01-03T19:16:24.722Z,9.45
2023-01-03T19:18:52.238Z,9.00
2023-01-03T19:21:20.837Z,12.75
2023-01-03T19:23:56.780Z,13.05
2023-01-03T19:26:41.181Z,11.98
2023-01-03T19:29:17.644Z,10.95
2023-01-03T19:31:47.669Z,12.38
2023-01-03T19:34:16.813Z,24.83
2023-01-03T19:36:43.751Z,39.08
2023-01-03T19:39:12.435Z,29.20
2023-01-03T19:42:10.556Z,20.10
2023-01-03T19:44:37.477Z,13.57
2023-01-03T19:47:04.654Z,15.18
2023-01-03T19:49:31.426Z,15.10
2023-01-03T19:51:58.392Z,13.07
2023-01-03T19:54:25.230Z,18.08
2023-01-03T19:56:58.664Z,18.17
2023-01-03T19:59:34.255Z,17.65
2023-01-03T20:02:25.754Z,14.77
2023-01-03T20:04:53.183Z,10.27
2023-01-03T20:07:20.301Z,13.23
2023-01-03T20:09:47.190Z,13.90
2023-01-03T20:12:15.494Z,15.77
2023-01-03T20:14:47.124Z,17.35
2023-01-03T20:17:22.669Z,19.38
2023-01-03T20:19:49.680Z,17.23
2023-01-03T20:22:44.984Z,21.67
2023-01-03T20:25:13.148Z,20.50
2023-01-03T20:27:44.516Z,23.63
2023-01-03T20:30:19.759Z,23.27
2023-01-03T20:32:46.640Z,21.90
2023-01-03T20:36:07.224Z,14.93
2023-01-03T20:38:03.164Z,10.52
2023-01-03T20:40:30.041Z,10.52
2023-01-03T20:42:58.304Z,11.88
2023-01-03T20:45:25.078Z,11.77
2023-01-03T20:47:54.344Z,11.55
2023-01-03T20:50:24.307Z,12.35
2023-01-03T20:52:51.195Z,11.98
2023-01-03T20:55:21.278Z,11.07
2023-01-03T20:57:49.480Z,11.63
2023-01-03T21:00:34.327Z,12.10
2023-01-03T21:03:01.359Z,10.95
2023-01-03T21:05:28.362Z,12.13
2023-01-03T21:08:13.791Z,11.93
2023-01-03T21:10:43.136Z,11.35
2023-01-03T21:13:11.206Z,11.63
2023-01-03T21:15:38.720Z,10.80
2023-01-03T21:18:06.520Z,11.80
2023-01-03T21:20:33.784Z,11.52
2023-01-03T21:23:00.703Z,12.18
2023-01-03T21:25:30.907Z,13.75
2023-01-03T21:27:57.752Z,14.10
2023-01-03T21:30:26.890Z,14.63
2023-01-03T21:32:53.788Z,14.23
2023-01-03T21:35:22.792Z,22.40
2023-01-03T21:37:51.408Z,21.90
2023-01-03T21:40:24.423Z,21.13
2023-01-03T21:43:04.295Z,24.55
2023-01-03T21:45:48.128Z,28.63
2023-01-03T21:48:17.618Z,28.25
2023-01-03T21:50:51.619Z,26.08
2023-01-03T21:53:21.183Z,24.27
2023-01-03T21:55:49.396Z,24.02
2023-01-03T21:58:18.953Z,22.40
2023-01-03T22:00:45.998Z,24.00
2023-01-03T22:03:33.101Z,23.10
2023-01-03T22:06:13.714Z,21.30
2023-01-03T22:08:40.884Z,20.88
2023-01-03T22:11:08.333Z,19.30
2023-01-03T22:13:35.787Z,20.70
2023-01-03T22:16:07.827Z,21.58
2023-01-03T22:18:35.583Z,22.40
2023-01-03T22:21:08.275Z,21.10
2023-01-03T22:23:36.212Z,23.33
2023-01-03T22:26:05.036Z,22.08
2023-01-03T22:28:45.623Z,17.50
2023-01-03T22:31:25.057Z,19.52
2023-01-03T22:33:51.956Z,19.77
2023-01-03T22:36:18.748Z,19.17
2023-01-03T22:38:45.720Z,15.85
2023-01-03T22:41:17.760Z,18.00
2023-01-03T22:43:45.614Z,17.08
2023-01-03T22:46:15.517Z,16.25
2023-01-03T22:48:43.398Z,12.93
2023-01-03T22:51:12.987Z,12.90
2023-01-03T22:53:42.104Z,12.77
2023-01-03T22:56:12.334Z,12.95
2023-01-03T22:58:39.194Z,13.60
2023-01-03T23:01:17.630Z,15.40
2023-01-03T23:03:46.942Z,15.60
2023-01-03T23:06:19.380Z,14.45
2023-01-03T23:08:52.737Z,13.30
2023-01-03T23:11:41.133Z,14.98
2023-01-03T23:14:19.026Z,13.40
2023-01-03T23:16:46.848Z,14.18
2023-01-03T23:19:16.279Z,15.25
2023-01-03T23:21:45.579Z,13.57
2023-01-03T23:24:24.503Z,15.52
2023-01-03T23:26:52.494Z,15.32
2023-01-03T23:29:19.463Z,13.40
2023-01-03T23:31:46.446Z,14.48
2023-01-03T23:34:13.692Z,13.60
2023-01-03T23:36:43.346Z,14.18
2023-01-03T23:39:18.233Z,14.55
2023-01-03T23:41:45.602Z,14.00
2023-01-03T23:44:13.184Z,13.65
2023-01-03T23:46:40.246Z,11.63
2023-01-03T23:49:07.296Z,12.88
2023-01-03T23:51:34.236Z,14.15
2023-01-03T23:54:01.141Z,13.50
2023-01-03T23:56:28.055Z,12.95
2023-01-03T23:58:54.838Z,12.43
